SVA174 EDDM-OEJN
Flight info
| Callsign | SVA174 |
|---|---|
| Flight time | N/A |
| Altitude | 39000 |
| Route | VAVOR3W VAVOR M867 RADIZ DCT PESUT DCT DIGOT DCT SIPAL DCT RODON DCT OVVER DCT DIMIS DCT SALUN N705 MMA DCT TAKRI P751 LXR M999 MUVOL |
| Aircraft | B789/H-SDE1E2E3FGHIJ2J3J4J5M1RWXY/LB1D1 |
Departure
| Time | 2026-05-07 17:11 |
|---|---|
| Airport | Munich Airport (EDDM) |
Arrival
| Time | N/A |
|---|---|
| Airport | King Abdulaziz International Airport (OEJN) |
| Time | Latitude | Longitude | Altitude | Speed | Heading |
|---|---|---|---|---|---|
| 2026-05-07 16:34 | 48.35373 | 11.78283 | 1491 ft | 0 kts | 83° |
| 2026-05-07 16:48 | 48.35373 | 11.78293 | 1477 ft | 0 kts | 83° |
| 2026-05-07 16:54 | 48.35373 | 11.78285 | 1475 ft | 4 kts | 82° |
| 2026-05-07 16:54 | 48.35366 | 11.78246 | 1475 ft | 4 kts | 66° |
| 2026-05-07 16:55 | 48.35353 | 11.78211 | 1475 ft | 4 kts | 49° |
| 2026-05-07 16:55 | 48.35333 | 11.78185 | 1475 ft | 4 kts | 30° |
| 2026-05-07 16:55 | 48.35309 | 11.78170 | 1475 ft | 4 kts | 5° |
| 2026-05-07 16:55 | 48.35297 | 11.78169 | 1475 ft | 0 kts | 353° |
| 2026-05-07 16:59 | 48.35299 | 11.78169 | 1475 ft | 1 kts | 353° |
| 2026-05-07 17:00 | 48.35325 | 11.78158 | 1491 ft | 6 kts | 329° |
| 2026-05-07 17:00 | 48.35348 | 11.78087 | 1481 ft | 10 kts | 275° |
| 2026-05-07 17:00 | 48.35342 | 11.77963 | 1478 ft | 8 kts | 263° |
| 2026-05-07 17:00 | 48.35340 | 11.77929 | 1484 ft | 0 kts | 264° |
| 2026-05-07 17:02 | 48.35340 | 11.77927 | 1485 ft | 1 kts | 264° |
| 2026-05-07 17:02 | 48.35338 | 11.77893 | 1491 ft | 5 kts | 264° |
| 2026-05-07 17:02 | 48.35324 | 11.77824 | 1480 ft | 8 kts | 234° |
| 2026-05-07 17:02 | 48.35272 | 11.77797 | 1482 ft | 9 kts | 178° |
| 2026-05-07 17:03 | 48.35199 | 11.77807 | 1483 ft | 12 kts | 173° |
| 2026-05-07 17:03 | 48.35100 | 11.77824 | 1480 ft | 16 kts | 173° |
| 2026-05-07 17:03 | 48.34987 | 11.77844 | 1483 ft | 16 kts | 173° |
| 2026-05-07 17:03 | 48.34878 | 11.77863 | 1487 ft | 11 kts | 173° |
| 2026-05-07 17:04 | 48.34798 | 11.77877 | 1479 ft | 12 kts | 173° |
| 2026-05-07 17:04 | 48.34718 | 11.77891 | 1483 ft | 12 kts | 172° |
| 2026-05-07 17:04 | 48.34671 | 11.77977 | 1491 ft | 12 kts | 90° |
| 2026-05-07 17:04 | 48.34680 | 11.78122 | 1491 ft | 16 kts | 84° |
| 2026-05-07 17:05 | 48.34694 | 11.78309 | 1480 ft | 20 kts | 84° |
| 2026-05-07 17:05 | 48.34710 | 11.78534 | 1477 ft | 23 kts | 83° |
| 2026-05-07 17:05 | 48.34731 | 11.78793 | 1483 ft | 26 kts | 82° |
| 2026-05-07 17:05 | 48.34752 | 11.79055 | 1480 ft | 25 kts | 83° |
| 2026-05-07 17:06 | 48.34771 | 11.79305 | 1481 ft | 23 kts | 83° |
| 2026-05-07 17:06 | 48.34789 | 11.79543 | 1488 ft | 22 kts | 83° |
| 2026-05-07 17:06 | 48.34808 | 11.79770 | 1485 ft | 21 kts | 83° |
| 2026-05-07 17:06 | 48.34825 | 11.79988 | 1477 ft | 21 kts | 84° |
| 2026-05-07 17:07 | 48.34840 | 11.80194 | 1478 ft | 20 kts | 83° |
| 2026-05-07 17:07 | 48.34855 | 11.80395 | 1486 ft | 19 kts | 84° |
| 2026-05-07 17:07 | 48.34801 | 11.80544 | 1480 ft | 16 kts | 155° |
| 2026-05-07 17:07 | 48.34697 | 11.80566 | 1491 ft | 12 kts | 174° |
| 2026-05-07 17:08 | 48.34686 | 11.80568 | 1484 ft | 0 kts | 174° |
| 2026-05-07 17:08 | 48.34685 | 11.80568 | 1485 ft | 0 kts | 174° |
| 2026-05-07 17:08 | 48.34681 | 11.80569 | 1488 ft | 1 kts | 174° |
| 2026-05-07 17:08 | 48.34673 | 11.80570 | 1485 ft | 1 kts | 174° |
| 2026-05-07 17:09 | 48.34657 | 11.80570 | 1484 ft | 4 kts | 187° |
| 2026-05-07 17:09 | 48.34607 | 11.80539 | 1488 ft | 14 kts | 209° |
| 2026-05-07 17:09 | 48.34518 | 11.80448 | 1479 ft | 10 kts | 206° |
| 2026-05-07 17:09 | 48.34477 | 11.80382 | 1478 ft | 8 kts | 252° |
| 2026-05-07 17:10 | 48.34473 | 11.80351 | 1487 ft | 0 kts | 263° |
| 2026-05-07 17:10 | 48.34473 | 11.80349 | 1485 ft | 2 kts | 263° |
| 2026-05-07 17:10 | 48.34455 | 11.80122 | 1491 ft | 48 kts | 263° |
| 2026-05-07 17:10 | 48.34395 | 11.79345 | 1480 ft | 103 kts | 262° |
| 2026-05-07 17:11 | 48.34294 | 11.78025 | 1480 ft | 150 kts | 263° |
| 2026-05-07 17:11 | 48.34140 | 11.76275 | 1590 ft | 179 kts | 260° |
| 2026-05-07 17:11 | 48.34009 | 11.74352 | 2023 ft | 196 kts | 268° |
| 2026-05-07 17:11 | 48.33830 | 11.72372 | 2986 ft | 187 kts | 263° |
| 2026-05-07 17:12 | 48.33644 | 11.70360 | 3378 ft | 208 kts | 264° |
| 2026-05-07 17:12 | 48.33460 | 11.68084 | 3793 ft | 224 kts | 266° |
| 2026-05-07 17:12 | 48.33359 | 11.65756 | 4574 ft | 223 kts | 267° |
| 2026-05-07 17:12 | 48.33258 | 11.63379 | 4972 ft | 241 kts | 265° |
| 2026-05-07 17:13 | 48.33032 | 11.60732 | 5356 ft | 261 kts | 263° |
| 2026-05-07 17:13 | 48.32808 | 11.58099 | 6382 ft | 257 kts | 264° |
| 2026-05-07 17:13 | 48.32615 | 11.55418 | 7177 ft | 259 kts | 264° |
| 2026-05-07 17:13 | 48.32426 | 11.52716 | 8011 ft | 260 kts | 264° |
| 2026-05-07 17:14 | 48.32227 | 11.50011 | 8823 ft | 262 kts | 263° |
| 2026-05-07 17:14 | 48.32024 | 11.47281 | 9627 ft | 264 kts | 263° |
| 2026-05-07 17:14 | 48.31819 | 11.44528 | 10365 ft | 266 kts | 263° |
| 2026-05-07 17:14 | 48.31562 | 11.41758 | 11024 ft | 270 kts | 254° |
| 2026-05-07 17:15 | 48.30573 | 11.39376 | 11666 ft | 276 kts | 225° |
| 2026-05-07 17:15 | 48.28853 | 11.38064 | 12316 ft | 287 kts | 192° |
| 2026-05-07 17:15 | 48.26847 | 11.38354 | 12961 ft | 301 kts | 160° |
| 2026-05-07 17:15 | 48.25180 | 11.40241 | 13605 ft | 314 kts | 128° |
| 2026-05-07 17:16 | 48.24258 | 11.43246 | 14099 ft | 327 kts | 106° |
| 2026-05-07 17:16 | 48.23818 | 11.46720 | 14144 ft | 351 kts | 99° |
| 2026-05-07 17:16 | 48.23434 | 11.50442 | 14205 ft | 372 kts | 101° |
| 2026-05-07 17:16 | 48.22829 | 11.54315 | 14284 ft | 391 kts | 107° |
| 2026-05-07 17:17 | 48.22052 | 11.58252 | 14755 ft | 395 kts | 107° |
| 2026-05-07 17:17 | 48.21331 | 11.62254 | 15265 ft | 399 kts | 105° |
| 2026-05-07 17:17 | 48.20677 | 11.66331 | 15729 ft | 404 kts | 104° |
| 2026-05-07 17:17 | 48.19997 | 11.70436 | 16249 ft | 407 kts | 105° |
| 2026-05-07 17:18 | 48.19270 | 11.74561 | 16741 ft | 411 kts | 105° |
| 2026-05-07 17:18 | 48.18542 | 11.78657 | 17215 ft | 414 kts | 107° |
| 2026-05-07 17:18 | 48.17397 | 11.82591 | 17673 ft | 414 kts | 124° |
| 2026-05-07 17:18 | 48.15656 | 11.86034 | 18092 ft | 417 kts | 131° |
| 2026-05-07 17:19 | 48.13807 | 11.89393 | 18544 ft | 419 kts | 131° |
| 2026-05-07 17:19 | 48.11923 | 11.92751 | 18948 ft | 422 kts | 131° |
| 2026-05-07 17:19 | 48.10051 | 11.96136 | 19339 ft | 424 kts | 131° |
| 2026-05-07 17:19 | 48.08174 | 11.99560 | 19734 ft | 426 kts | 131° |
| 2026-05-07 17:20 | 48.06026 | 12.02585 | 20136 ft | 424 kts | 147° |
| 2026-05-07 17:20 | 48.03603 | 12.05124 | 20466 ft | 426 kts | 148° |
| 2026-05-07 17:20 | 48.01142 | 12.07599 | 20855 ft | 428 kts | 148° |
| 2026-05-07 17:20 | 47.98696 | 12.10053 | 21198 ft | 430 kts | 148° |
| 2026-05-07 17:21 | 47.96226 | 12.12581 | 21559 ft | 432 kts | 147° |
| 2026-05-07 17:21 | 47.93743 | 12.15140 | 21902 ft | 434 kts | 146° |
| 2026-05-07 17:21 | 47.91395 | 12.18005 | 22166 ft | 438 kts | 141° |
| 2026-05-07 17:21 | 47.89063 | 12.20944 | 22522 ft | 439 kts | 141° |
| 2026-05-07 17:22 | 47.86719 | 12.23880 | 22839 ft | 442 kts | 141° |
| 2026-05-07 17:22 | 47.84363 | 12.26834 | 23152 ft | 444 kts | 141° |
| 2026-05-07 17:22 | 47.82000 | 12.29801 | 23489 ft | 445 kts | 141° |
| 2026-05-07 17:22 | 47.79627 | 12.32775 | 23722 ft | 447 kts | 141° |
| 2026-05-07 17:23 | 47.77272 | 12.35718 | 24011 ft | 449 kts | 142° |
| 2026-05-07 17:23 | 47.74885 | 12.38699 | 24296 ft | 448 kts | 142° |
| 2026-05-07 17:23 | 47.72492 | 12.41685 | 24543 ft | 450 kts | 142° |
| 2026-05-07 17:23 | 47.70090 | 12.44674 | 24771 ft | 451 kts | 142° |
| 2026-05-07 17:24 | 47.67676 | 12.47649 | 25010 ft | 452 kts | 142° |
| 2026-05-07 17:24 | 47.65249 | 12.50629 | 25225 ft | 453 kts | 142° |
| 2026-05-07 17:24 | 47.62804 | 12.53595 | 25448 ft | 453 kts | 146° |
| 2026-05-07 17:24 | 47.60129 | 12.56036 | 25625 ft | 453 kts | 152° |
| 2026-05-07 17:25 | 47.57412 | 12.58406 | 25860 ft | 454 kts | 152° |
| 2026-05-07 17:25 | 47.54692 | 12.60789 | 26109 ft | 455 kts | 152° |
| 2026-05-07 17:25 | 47.51996 | 12.63138 | 26333 ft | 456 kts | 152° |
| 2026-05-07 17:25 | 47.49255 | 12.65515 | 26542 ft | 458 kts | 152° |
| 2026-05-07 17:26 | 47.46500 | 12.67905 | 26777 ft | 459 kts | 152° |
| 2026-05-07 17:26 | 47.43744 | 12.70299 | 26998 ft | 461 kts | 152° |
| 2026-05-07 17:26 | 47.40977 | 12.72697 | 27229 ft | 462 kts | 152° |